メインページ
METAR-TAF:

METAR-TAF

空港 :

オタワ・マクドナルド・カルティエ国際空港

オタワ, オンタリオ州, カナダ

緯度: 45-19N, 経度: 075-40W, 海抜: 116m

現時点の気象観測

当レポートは41分前の19:00(UTC)に作成
南西の風 11kt、最大18ktの突風を伴う
気温 31°C
湿度 63%
気圧 1006 hPa
視程: 24.1km
高度3900ftの雲は散在している
高度9000ftの千切れ雲あり
高度15000ftの千切れ雲あり
高度24000ftの千切れ雲あり

METAR: CYOW 191900Z 23011G18KT 15SM SCT039 BKN090 BKN150 BKN240 31/23 A2971 RMK CU4AC1AC1CI1 SLP060 DENSITY ALT 2600FT

時間: 15:41 (19:41 UTC)

予報

当レポートは2時間3分前の17:38(UTC)に作成
予報は19日の 18時(UTC)から 20日の 18時(UTC)まで有効
南西の風 10kt、最大20ktの突風を伴う
視程: 10km
高度4000ftの千切れ雲あり
高度14000ftの曇り
19日の 22時(UTC)から 19日の 24時(UTC)まで一時的に
視程: 10km
高度4000ftの雲は散在している, 積乱雲.
近辺で激しい雷雨
20日の 0000時(UTC)から
西/南西の風 10kt、最大20ktの突風を伴う
視程: 10km
高度4000ftの雲はほとんどない
20日の 00時(UTC)から 20日の 09時(UTC)まで一時的に
高度4000ftの千切れ雲あり
20日の 00時(UTC)から 20日の 02時(UTC)まで徐々に
西/南西の風 8kt
20日の 0900時(UTC)から
西/南西の風 8kt
視程: 10km
高度1500ftの千切れ雲あり
20日の 09時(UTC)から 20日の 16時(UTC)まで一時的に
高度1500ftの雲は散在している
20日の 1600時(UTC)から
南西の風 12kt
視程: 10km
高度4000ftの千切れ雲あり
弱いにわか雨

TAF: CYOW 191738Z 1918/2018 23010G20KT P6SM BKN040 OVC140 TEMPO 1922/1924 P6SM VCTS SCT040CB FM200000 24010G20KT P6SM FEW040 TEMPO 2000/2009 BKN040 BECMG 2000/2002 24008KT FM200900 25008KT P6SM BKN015 TEMPO 2009/2016 SCT015 FM201600 23012KT P6SM -SHRA BKN040 RMK NXT FCST BY 192100Z

4,000以上の空港の気象観測と天気予報(METAR報とTAF報)

利用可能な観測所は地図上に黄色い丸と赤い丸で示す。

丸の上にカーソルを重ねると観測所名を参照できる。

次にクリックすると気象観測と天気予報を参照できる。

マップの切り替え:黒色「×」印の緑ボタンをクリックして拡大、「-」印の緑ボタンをクリックして縮小、緑色の三角印をクリックして隣りの地図に切り替え


METAR-TAF: